Time;durP1;ratioP1;P1;durP2;ratioP2;P2;SDS_P1;SDS_P2;PMS_P1;PMS_P2;Temp;Humidity;BMP_temperature;BMP_pressure;BME280_temperature;BME280_humidity;BME280_pressure;Samples;Min_cycle;Max_cycle;Signal;HPM_P1;HPM_P2
2023/01/11 00:01:20;;;;;;;7.47;2.63;;;5.60;99.90;;;;;;5062381;28;20202;-74
2023/01/11 00:03:46;;;;;;;6.77;2.30;;;5.70;99.90;;;;;;5081418;28;20210;-74
2023/01/11 00:06:12;;;;;;;7.70;2.80;;;5.60;99.90;;;;;;5061438;28;20221;-75
2023/01/11 00:08:38;;;;;;;9.70;2.57;;;5.70;99.90;;;;;;5068792;28;20171;-74
2023/01/11 00:11:09;;;;;;;13.67;2.83;;;5.70;99.90;;;;;;5065549;28;20206;-74
2023/01/11 00:13:35;;;;;;;8.10;2.53;;;5.60;99.90;;;;;;5082476;28;20271;-74
2023/01/11 00:16:08;;;;;;;7.13;2.40;;;5.60;99.90;;;;;;5083816;28;20666;-74
2023/01/11 00:18:34;;;;;;;5.77;2.37;;;5.60;99.90;;;;;;5066048;28;20202;-73
2023/01/11 00:21:07;;;;;;;5.83;2.93;;;5.60;99.90;;;;;;5084215;28;20243;-73
2023/01/11 00:23:33;;;;;;;9.93;2.67;;;5.60;99.90;;;;;;5088289;28;20198;-72
2023/01/11 00:26:05;;;;;;;9.30;2.57;;;5.60;99.90;;;;;;5084974;28;20317;-73
2023/01/11 00:28:31;;;;;;;5.20;1.97;;;5.60;99.90;;;;;;5066302;28;20282;-74
2023/01/11 00:30:57;;;;;;;9.47;2.83;;;5.60;99.90;;;;;;5085587;28;20242;-73
2023/01/11 00:33:23;;;;;;;9.47;2.70;;;5.60;99.90;;;;;;5079471;28;20190;-73
2023/01/11 00:35:52;;;;;;;7.50;2.40;;;5.60;99.90;;;;;;5088024;28;20170;-74
2023/01/11 00:49:21;;;;;;;12.90;2.47;;;5.60;99.90;;;;;;5083273;28;20205;-74
2023/01/11 00:51:47;;;;;;;6.70;2.30;;;5.60;99.90;;;;;;5069420;28;20210;-75
2023/01/11 00:54:13;;;;;;;9.07;2.50;;;5.60;99.90;;;;;;5082485;28;20210;-74
2023/01/11 00:56:39;;;;;;;6.77;2.40;;;5.50;99.90;;;;;;5067346;28;20190;-75
2023/01/11 00:59:05;;;;;;;6.43;2.20;;;5.50;99.90;;;;;;5082522;28;20230;-74
2023/01/11 01:01:31;;;;;;;14.87;2.50;;;5.40;99.90;;;;;;5063101;28;20203;-74
2023/01/11 01:03:58;;;;;;;7.63;2.37;;;5.50;99.90;;;;;;5063875;28;20211;-76
2023/01/11 01:06:24;;;;;;;12.30;2.33;;;5.40;99.90;;;;;;5063112;28;20198;-75
2023/01/11 01:08:50;;;;;;;8.00;2.23;;;5.40;99.90;;;;;;5084649;28;20177;-75
2023/01/11 01:11:16;;;;;;;8.27;2.50;;;5.40;99.90;;;;;;5082087;28;20206;-75
2023/01/11 01:16:26;;;;;;;6.47;2.30;;;5.40;99.90;;;;;;5082087;28;20209;-74
2023/01/11 01:18:55;;;;;;;7.27;2.23;;;5.40;99.90;;;;;;5081299;28;20673;-74
2023/01/11 01:21:22;;;;;;;6.13;2.10;;;5.40;99.90;;;;;;5059091;28;20182;-75
2023/01/11 01:23:49;;;;;;;6.77;2.33;;;5.40;99.90;;;;;;5083618;28;20286;-74
2023/01/11 01:26:15;;;;;;;10.30;2.60;;;5.40;99.90;;;;;;5065126;28;20228;-75
2023/01/11 01:28:41;;;;;;;8.67;2.23;;;5.40;99.90;;;;;;5081483;28;20609;-75
2023/01/11 01:31:07;;;;;;;9.50;2.37;;;5.50;99.90;;;;;;5078753;28;20202;-75
2023/01/11 01:33:32;;;;;;;8.47;2.37;;;5.50;99.90;;;;;;5083398;28;20202;-74
2023/01/11 01:36:00;;;;;;;7.70;2.23;;;5.50;99.90;;;;;;5063144;28;20177;-75
2023/01/11 01:38:26;;;;;;;7.37;2.10;;;5.50;99.90;;;;;;5083804;28;20238;-74
2023/01/11 01:40:52;;;;;;;8.07;2.50;;;5.50;99.90;;;;;;5079541;28;20712;-76
2023/01/11 01:43:18;;;;;;;8.60;1.97;;;5.50;99.90;;;;;;5060608;28;20317;-75
2023/01/11 01:45:44;;;;;;;8.60;2.30;;;5.50;99.90;;;;;;5082046;28;20214;-75
2023/01/11 01:48:14;;;;;;;9.47;2.80;;;5.50;99.90;;;;;;5079184;28;20212;-74
2023/01/11 01:51:00;;;;;;;7.33;2.17;;;5.60;99.90;;;;;;5077378;28;20162;-75
2023/01/11 01:53:31;;;;;;;5.13;1.73;;;5.60;99.90;;;;;;5064956;28;20202;-75
2023/01/11 01:56:00;;;;;;;6.43;2.70;;;5.70;99.90;;;;;;5078982;28;20202;-76
2023/01/11 01:58:39;;;;;;;5.73;1.97;;;5.70;99.90;;;;;;5087530;28;20231;-74
2023/01/11 02:04:31;;;;;;;4.77;1.70;;;5.70;99.90;;;;;;4979448;28;20221;-74
2023/01/11 02:07:06;;;;;;;6.87;2.17;;;5.70;99.90;;;;;;4992753;28;20212;-75
2023/01/11 02:09:42;;;;;;;9.27;2.50;;;5.80;99.90;;;;;;5052581;28;20213;-74
2023/01/11 02:12:08;;;;;;;6.33;1.80;;;5.80;99.90;;;;;;5060704;28;20171;-74
2023/01/11 02:14:36;;;;;;;7.80;2.00;;;5.80;99.90;;;;;;5062218;28;20198;-74
2023/01/11 02:17:01;;;;;;;8.57;2.50;;;5.90;99.90;;;;;;5081244;28;20210;-74
2023/01/11 02:19:54;;;;;;;11.40;2.37;;;5.90;99.90;;;;;;5067489;28;20198;-74
2023/01/11 02:22:41;;;;;;;8.73;2.47;;;5.90;99.90;;;;;;5075371;28;20274;-74
2023/01/11 02:25:43;;;;;;;9.30;2.10;;;5.90;99.90;;;;;;5078650;28;20214;-74
2023/01/11 02:28:15;;;;;;;8.33;2.53;;;5.90;99.90;;;;;;5061848;28;20209;-75
2023/01/11 02:30:51;;;;;;;9.07;2.20;;;5.90;99.90;;;;;;5081778;28;20308;-74
2023/01/11 02:33:46;;;;;;;7.90;2.00;;;6.00;99.90;;;;;;5078717;28;20166;-73
2023/01/11 02:36:20;;;;;;;13.97;2.50;;;6.00;99.90;;;;;;5085743;28;20175;-74
2023/01/11 02:38:51;;;;;;;9.27;2.00;;;5.90;99.90;;;;;;5087786;28;20189;-73
2023/01/11 02:41:20;;;;;;;9.43;1.90;;;6.00;99.90;;;;;;5077665;28;20210;-75
2023/01/11 02:46:54;;;;;;;6.83;1.93;;;6.00;99.90;;;;;;5079563;28;20310;-75
2023/01/11 02:49:20;;;;;;;8.80;1.97;;;6.00;99.90;;;;;;5075464;28;20230;-74
2023/01/11 02:52:01;;;;;;;7.00;1.90;;;6.00;99.90;;;;;;5081623;28;20275;-73
2023/01/11 02:54:28;;;;;;;7.07;2.00;;;6.00;99.90;;;;;;5052651;28;20194;-75
2023/01/11 02:56:57;;;;;;;6.40;1.97;;;6.00;99.90;;;;;;5061259;28;20174;-75
2023/01/11 02:59:29;;;;;;;7.93;1.87;;;6.10;99.90;;;;;;5082317;28;20599;-74
2023/01/11 03:01:55;;;;;;;5.33;1.90;;;6.10;99.90;;;;;;5057702;28;20549;-73
2023/01/11 03:04:36;;;;;;;5.53;1.70;;;6.10;99.90;;;;;;5080447;28;20209;-74
2023/01/11 03:07:13;;;;;;;4.27;1.50;;;6.10;99.90;;;;;;5077183;28;20669;-73
2023/01/11 03:10:01;;;;;;;5.50;1.70;;;6.10;99.90;;;;;;5083796;28;20217;-75
2023/01/11 03:12:55;;;;;;;2.90;1.33;;;6.10;99.90;;;;;;5031934;28;20171;-74
2023/01/11 03:15:52;;;;;;;3.77;1.47;;;6.10;99.90;;;;;;5060934;28;20621;-74
2023/01/11 03:18:37;;;;;;;6.07;1.63;;;6.10;99.90;;;;;;5048280;28;20178;-74
2023/01/11 03:21:29;;;;;;;3.03;1.30;;;6.10;99.90;;;;;;5078848;28;20524;-75
2023/01/11 03:24:11;;;;;;;7.57;1.87;;;6.10;99.90;;;;;;5058231;28;20225;-75
2023/01/11 03:26:56;;;;;;;3.80;1.30;;;6.10;99.90;;;;;;5070144;28;20214;-74
2023/01/11 03:29:26;;;;;;;9.30;1.77;;;6.10;99.90;;;;;;5060287;28;20194;-74
2023/01/11 03:31:55;;;;;;;5.93;1.50;;;6.10;99.90;;;;;;5081531;28;20787;-73
2023/01/11 03:34:30;;;;;;;7.87;1.93;;;6.10;99.90;;;;;;5079536;28;20282;-74
2023/01/11 03:37:00;;;;;;;5.33;1.63;;;6.10;99.90;;;;;;5077078;28;20205;-74
2023/01/11 03:40:02;;;;;;;6.77;1.80;;;6.10;99.90;;;;;;5082392;28;20224;-74
2023/01/11 03:42:30;;;;;;;4.80;1.80;;;6.10;99.90;;;;;;5013720;28;20221;-75
2023/01/11 03:44:58;;;;;;;5.80;1.70;;;6.10;99.90;;;;;;5066698;28;20201;-74
2023/01/11 03:47:28;;;;;;;3.63;1.43;;;6.10;99.90;;;;;;5085500;28;20202;-74
2023/01/11 03:49:56;;;;;;;9.00;1.83;;;6.10;99.90;;;;;;5045165;28;20206;-74
2023/01/11 03:52:27;;;;;;;3.43;1.47;;;6.10;99.90;;;;;;5066567;28;20195;-74
2023/01/11 03:54:54;;;;;;;4.70;2.00;;;6.10;99.90;;;;;;5058133;28;20298;-72
2023/01/11 03:57:24;;;;;;;4.17;1.67;;;6.20;99.90;;;;;;5083409;28;20195;-74
2023/01/11 03:59:50;;;;;;;4.80;1.87;;;6.20;99.90;;;;;;5065579;28;20245;-74
2023/01/11 04:02:32;;;;;;;7.23;2.23;;;6.20;99.90;;;;;;5061590;28;20195;-75
2023/01/11 04:04:58;;;;;;;6.17;1.43;;;6.20;99.90;;;;;;5077367;28;20692;-75
2023/01/11 04:07:24;;;;;;;6.57;2.10;;;6.20;99.90;;;;;;5081394;28;20285;-74
2023/01/11 04:09:49;;;;;;;6.07;1.77;;;6.20;99.90;;;;;;5063554;28;20775;-74
2023/01/11 04:12:15;;;;;;;7.30;1.80;;;6.20;99.90;;;;;;5080801;28;20528;-75
2023/01/11 04:14:41;;;;;;;5.30;1.50;;;6.20;99.90;;;;;;5081908;28;20183;-75
2023/01/11 04:17:06;;;;;;;6.30;1.33;;;6.20;99.90;;;;;;5081628;28;20194;-75
2023/01/11 04:19:32;;;;;;;3.90;1.50;;;6.20;99.90;;;;;;5081067;28;20882;-74
2023/01/11 04:21:57;;;;;;;5.13;1.80;;;6.20;99.90;;;;;;5060259;28;20264;-75
2023/01/11 04:24:23;;;;;;;7.43;1.57;;;6.30;99.90;;;;;;5082927;28;20239;-75
2023/01/11 04:26:49;;;;;;;5.43;1.60;;;6.30;99.90;;;;;;5080089;28;20206;-74
2023/01/11 04:29:15;;;;;;;5.53;1.30;;;6.30;99.90;;;;;;5078718;28;20219;-74
2023/01/11 04:31:40;;;;;;;8.20;1.70;;;6.30;99.90;;;;;;5082634;28;20194;-74
2023/01/11 04:34:06;;;;;;;6.77;1.73;;;6.20;99.90;;;;;;5060329;28;20570;-75
2023/01/11 04:36:32;;;;;;;5.20;1.63;;;6.30;99.90;;;;;;5080544;28;20206;-73
2023/01/11 04:38:58;;;;;;;5.77;1.80;;;6.20;99.90;;;;;;5063753;28;20176;-75
2023/01/11 04:44:08;;;;;;;3.80;1.43;;;6.30;99.90;;;;;;5078384;28;20573;-75
2023/01/11 04:46:33;;;;;;;6.80;1.53;;;6.30;99.90;;;;;;5063047;28;20206;-75
2023/01/11 04:48:59;;;;;;;4.17;1.30;;;6.30;99.90;;;;;;5077242;28;20734;-74
2023/01/11 04:51:25;;;;;;;13.23;2.47;;;6.40;99.90;;;;;;5066145;28;20179;-75
2023/01/11 04:53:50;;;;;;;4.80;1.50;;;6.40;99.90;;;;;;5079808;28;20246;-74
2023/01/11 04:56:17;;;;;;;7.30;1.80;;;6.40;99.90;;;;;;5066183;28;20554;-75
2023/01/11 04:58:43;;;;;;;5.87;1.60;;;6.40;99.90;;;;;;5086712;28;20623;-74
2023/01/11 05:01:15;;;;;;;3.87;1.30;;;6.40;99.90;;;;;;5081112;28;20222;-75
2023/01/11 05:03:41;;;;;;;4.73;1.53;;;6.50;99.90;;;;;;5087479;28;20202;-75
2023/01/11 05:06:08;;;;;;;4.50;1.90;;;6.40;99.90;;;;;;5068905;28;20202;-75
2023/01/11 05:08:34;;;;;;;5.47;1.40;;;6.50;99.90;;;;;;5084265;28;20205;-74
2023/01/11 05:11:04;;;;;;;4.07;1.30;;;6.50;99.90;;;;;;5082178;28;20289;-75
2023/01/11 05:13:42;;;;;;;2.37;1.40;;;6.50;99.90;;;;;;5068466;28;20198;-74
2023/01/11 05:16:08;;;;;;;5.50;1.50;;;6.50;99.90;;;;;;5061129;28;20208;-75
2023/01/11 05:18:35;;;;;;;4.13;1.40;;;6.50;99.90;;;;;;5086304;28;20235;-75
2023/01/11 05:21:01;;;;;;;5.00;1.80;;;6.50;99.90;;;;;;5082561;28;20203;-74
2023/01/11 05:23:27;;;;;;;2.13;1.33;;;6.50;99.90;;;;;;5083240;28;20285;-76
2023/01/11 05:25:52;;;;;;;3.33;1.20;;;6.50;99.90;;;;;;5066359;28;20296;-73
2023/01/11 05:28:18;;;;;;;3.93;1.47;;;6.50;99.90;;;;;;5063912;28;20213;-75
2023/01/11 05:30:51;;;;;;;4.97;1.50;;;6.50;99.90;;;;;;5065664;28;20202;-75
2023/01/11 05:33:16;;;;;;;4.27;1.50;;;6.50;99.90;;;;;;5081605;28;20532;-75
2023/01/11 05:35:42;;;;;;;3.17;1.43;;;6.50;99.90;;;;;;5082835;28;20190;-76
2023/01/11 05:38:07;;;;;;;6.20;1.73;;;6.50;99.90;;;;;;5081963;28;20202;-74
2023/01/11 05:40:33;;;;;;;5.10;1.70;;;6.50;99.90;;;;;;5065093;28;20209;-74
2023/01/11 05:42:59;;;;;;;5.30;1.33;;;6.50;99.90;;;;;;5065744;28;20198;-74
2023/01/11 05:45:34;;;;;;;6.60;1.40;;;6.50;99.90;;;;;;5100566;22;20206;-73
2023/01/11 05:48:00;;;;;;;8.63;1.73;;;6.50;99.90;;;;;;5071323;28;20236;-73
2023/01/11 05:50:26;;;;;;;8.57;1.63;;;6.50;99.90;;;;;;5067533;28;20211;-74
2023/01/11 05:52:52;;;;;;;4.77;1.40;;;6.60;99.90;;;;;;5054634;28;20672;-74
2023/01/11 05:55:18;;;;;;;7.47;1.43;;;6.60;99.90;;;;;;5068795;28;20307;-75
2023/01/11 05:57:43;;;;;;;3.00;1.60;;;6.50;99.90;;;;;;5054798;28;20229;-74
2023/01/11 06:00:11;;;;;;;5.17;1.50;;;6.60;99.90;;;;;;5071691;28;20206;-74
2023/01/11 06:02:37;;;;;;;9.10;1.47;;;6.60;99.90;;;;;;5072765;28;20175;-75
2023/01/11 06:05:03;;;;;;;3.80;1.70;;;6.60;99.90;;;;;;5072020;28;20219;-74
2023/01/11 06:07:29;;;;;;;5.80;1.67;;;6.60;99.90;;;;;;5072180;28;20260;-75
2023/01/11 06:09:55;;;;;;;6.27;1.47;;;6.60;99.90;;;;;;5070982;28;20289;-75
2023/01/11 06:12:20;;;;;;;5.77;1.97;;;6.60;99.90;;;;;;5071490;28;20174;-76
2023/01/11 06:14:46;;;;;;;4.13;1.27;;;6.60;99.90;;;;;;5073699;28;20175;-75
2023/01/11 06:17:12;;;;;;;5.07;1.27;;;6.60;99.90;;;;;;5071231;28;20219;-75
2023/01/11 06:19:37;;;;;;;3.03;1.03;;;6.50;99.90;;;;;;5071004;28;20213;-75
2023/01/11 06:22:03;;;;;;;6.00;1.50;;;6.60;99.90;;;;;;5071328;28;20209;-74
2023/01/11 06:24:28;;;;;;;2.67;1.30;;;6.60;99.90;;;;;;5071646;28;20214;-74
2023/01/11 06:26:54;;;;;;;4.83;1.23;;;6.60;99.90;;;;;;5053452;28;20202;-75
2023/01/11 06:29:20;;;;;;;4.07;1.37;;;6.60;99.90;;;;;;5070720;28;20199;-75
2023/01/11 06:31:45;;;;;;;9.47;1.47;;;6.60;99.90;;;;;;5070815;28;20237;-75
2023/01/11 06:34:11;;;;;;;3.63;1.23;;;6.70;99.90;;;;;;5071203;28;20206;-74
2023/01/11 06:36:37;;;;;;;7.17;1.90;;;6.60;99.90;;;;;;5071061;28;20211;-74
2023/01/11 06:39:04;;;;;;;3.17;1.50;;;6.70;99.90;;;;;;5071294;28;20543;-74
2023/01/11 06:41:29;;;;;;;5.60;1.40;;;6.70;99.90;;;;;;5068838;28;20198;-74
2023/01/11 06:43:55;;;;;;;5.17;1.27;;;6.70;99.90;;;;;;5070898;28;20214;-74
2023/01/11 06:46:21;;;;;;;6.17;1.20;;;6.70;99.90;;;;;;5069343;28;20211;-75
2023/01/11 06:48:47;;;;;;;2.70;1.20;;;6.70;99.90;;;;;;5053112;28;20210;-74
2023/01/11 06:51:14;;;;;;;5.50;1.30;;;6.70;99.90;;;;;;5069859;28;20194;-73
2023/01/11 06:53:41;;;;;;;6.10;1.30;;;6.70;99.90;;;;;;5071372;28;20179;-74
2023/01/11 06:56:10;;;;;;;4.10;1.43;;;6.70;99.90;;;;;;5052106;28;20207;-74
2023/01/11 06:58:36;;;;;;;5.53;1.37;;;6.70;99.90;;;;;;5070510;28;20214;-75
2023/01/11 07:01:02;;;;;;;4.13;1.17;;;6.80;99.90;;;;;;5069676;28;20202;-75
2023/01/11 07:03:28;;;;;;;3.17;1.10;;;6.70;99.90;;;;;;5070411;28;20344;-74
2023/01/11 07:05:55;;;;;;;6.50;1.57;;;6.70;99.90;;;;;;5070711;28;20221;-75
2023/01/11 07:08:22;;;;;;;4.90;1.50;;;6.70;99.90;;;;;;5069105;28;20591;-75
2023/01/11 07:10:48;;;;;;;3.47;1.30;;;6.70;99.90;;;;;;5069324;28;20207;-74
2023/01/11 07:13:17;;;;;;;3.37;1.30;;;6.70;99.90;;;;;;5052168;28;20221;-74
2023/01/11 07:15:49;;;;;;;6.33;1.40;;;6.70;99.90;;;;;;5069764;28;20684;-75
2023/01/11 07:18:16;;;;;;;5.33;1.70;;;6.80;99.90;;;;;;5069541;28;20171;-75
2023/01/11 07:20:42;;;;;;;4.80;1.60;;;6.80;99.90;;;;;;5069998;28;20164;-74
2023/01/11 07:23:08;;;;;;;4.57;1.60;;;6.80;99.90;;;;;;5069841;28;20221;-75
2023/01/11 07:25:34;;;;;;;5.47;1.90;;;6.80;99.90;;;;;;5070086;28;20213;-74
2023/01/11 07:28:02;;;;;;;7.93;1.80;;;6.80;99.90;;;;;;5070141;28;20203;-74
2023/01/11 07:30:30;;;;;;;6.57;1.60;;;6.80;99.90;;;;;;5069544;28;20182;-75
2023/01/11 07:32:59;;;;;;;12.23;2.33;;;6.80;99.90;;;;;;5070624;28;20190;-75
2023/01/11 07:35:26;;;;;;;4.57;1.50;;;6.80;99.90;;;;;;5069969;28;20214;-74
2023/01/11 07:37:52;;;;;;;2.80;1.40;;;6.80;99.90;;;;;;5051934;28;20677;-75
2023/01/11 07:40:18;;;;;;;5.83;1.70;;;6.90;99.90;;;;;;5051316;28;20203;-75
2023/01/11 07:43:10;;;;;;;7.40;1.97;;;6.90;99.90;;;;;;5070024;28;20211;-74
2023/01/11 07:45:38;;;;;;;3.47;1.73;;;6.90;99.90;;;;;;5067615;28;20215;-74
2023/01/11 07:48:05;;;;;;;2.30;1.23;;;7.00;99.90;;;;;;5070103;28;20179;-74
2023/01/11 07:50:31;;;;;;;3.93;1.83;;;6.90;99.90;;;;;;5065781;28;20199;-73
2023/01/11 07:52:57;;;;;;;5.00;1.60;;;7.00;99.90;;;;;;5069909;28;20286;-75
2023/01/11 07:55:23;;;;;;;2.47;1.30;;;7.00;99.90;;;;;;5069814;28;20261;-74
2023/01/11 07:57:48;;;;;;;6.33;1.37;;;7.00;99.90;;;;;;5069901;28;20742;-75
2023/01/11 08:00:15;;;;;;;3.53;1.37;;;7.00;99.90;;;;;;5068784;28;20171;-74
2023/01/11 08:02:40;;;;;;;7.27;1.67;;;7.00;99.90;;;;;;5052299;28;20522;-75
2023/01/11 08:05:06;;;;;;;8.10;1.63;;;7.00;99.90;;;;;;5051632;28;20218;-74
2023/01/11 08:07:32;;;;;;;4.53;1.93;;;7.10;99.90;;;;;;5068329;28;20207;-74
2023/01/11 08:09:58;;;;;;;5.97;1.67;;;7.10;99.90;;;;;;5050995;28;20612;-75
2023/01/11 08:15:11;;;;;;;3.57;1.40;;;7.10;99.90;;;;;;5070003;28;20217;-75
2023/01/11 08:17:37;;;;;;;3.20;1.73;;;7.20;99.90;;;;;;5051879;28;20222;-75
2023/01/11 08:20:03;;;;;;;3.03;1.50;;;7.10;99.90;;;;;;5050722;28;20210;-78
2023/01/11 08:22:29;;;;;;;7.27;1.80;;;7.10;99.90;;;;;;5068293;28;20205;-74
2023/01/11 08:24:54;;;;;;;7.17;1.67;;;7.10;99.90;;;;;;5069226;28;20609;-74
2023/01/11 08:27:20;;;;;;;3.43;1.47;;;7.20;99.90;;;;;;5068187;28;20198;-74
2023/01/11 08:29:45;;;;;;;5.23;1.97;;;7.20;99.90;;;;;;5070504;28;20186;-74
2023/01/11 08:32:12;;;;;;;4.73;1.53;;;7.20;99.90;;;;;;5072994;28;20276;-74
2023/01/11 08:34:38;;;;;;;4.37;1.57;;;7.30;99.90;;;;;;5072223;28;20275;-75
2023/01/11 08:37:04;;;;;;;4.47;1.70;;;7.30;99.90;;;;;;5047622;28;20302;-74
2023/01/11 08:39:31;;;;;;;5.17;1.60;;;7.30;99.90;;;;;;5054541;28;20210;-75
2023/01/11 08:41:57;;;;;;;3.83;1.33;;;7.30;99.90;;;;;;5073467;28;20175;-74
2023/01/11 08:44:23;;;;;;;5.23;1.77;;;7.40;99.90;;;;;;5073190;28;20593;-74
2023/01/11 08:46:49;;;;;;;6.27;1.90;;;7.40;99.90;;;;;;5068811;28;20222;-75
2023/01/11 08:49:14;;;;;;;2.90;1.33;;;7.50;99.90;;;;;;5072435;28;20708;-75
2023/01/11 08:51:41;;;;;;;6.77;1.97;;;7.50;99.90;;;;;;5055003;28;20199;-75
2023/01/11 08:54:10;;;;;;;6.50;1.67;;;7.50;99.90;;;;;;5055158;28;20163;-75
2023/01/11 08:56:36;;;;;;;7.67;1.80;;;7.40;99.90;;;;;;5051278;28;20219;-75
2023/01/11 08:59:03;;;;;;;3.60;1.60;;;7.40;99.90;;;;;;5054412;28;20699;-75
2023/01/11 09:01:29;;;;;;;4.27;1.47;;;7.40;99.90;;;;;;5072148;28;20274;-75
2023/01/11 09:03:54;;;;;;;5.77;2.00;;;7.50;99.90;;;;;;5072550;28;20742;-75
2023/01/11 09:06:21;;;;;;;3.33;1.30;;;7.50;99.90;;;;;;5072494;28;20195;-76
2023/01/11 09:08:47;;;;;;;9.40;1.73;;;7.50;99.90;;;;;;5054890;28;20191;-75
2023/01/11 09:13:57;;;;;;;5.43;1.60;;;7.50;99.90;;;;;;5069724;28;20695;-74
2023/01/11 09:16:23;;;;;;;7.97;1.63;;;7.50;99.90;;;;;;5072545;28;20207;-74
2023/01/11 09:18:49;;;;;;;5.97;1.73;;;7.50;99.90;;;;;;5072276;28;20221;-75
2023/01/11 09:21:14;;;;;;;4.10;1.43;;;7.50;99.90;;;;;;5071546;28;20183;-74
2023/01/11 09:23:40;;;;;;;6.53;2.50;;;7.40;99.90;;;;;;5072850;28;20509;-74
2023/01/11 09:26:06;;;;;;;7.50;2.00;;;7.40;99.90;;;;;;5071727;28;20753;-74
2023/01/11 09:28:31;;;;;;;4.97;2.13;;;7.40;99.90;;;;;;5054301;28;20229;-73
2023/01/11 09:30:57;;;;;;;7.40;2.50;;;7.30;99.90;;;;;;5053332;28;20230;-75
2023/01/11 09:33:23;;;;;;;4.30;1.60;;;7.30;99.90;;;;;;5072185;28;20171;-74
2023/01/11 09:35:50;;;;;;;2.07;1.33;;;7.20;99.90;;;;;;5072344;28;20273;-75
2023/01/11 09:38:17;;;;;;;9.27;1.90;;;7.20;99.90;;;;;;5072062;28;20202;-74
2023/01/11 09:40:48;;;;;;;6.57;1.87;;;7.20;99.90;;;;;;5070411;28;20203;-74
2023/01/11 09:43:16;;;;;;;5.83;2.20;;;7.20;99.90;;;;;;5053441;28;20313;-74
2023/01/11 09:45:50;;;;;;;4.33;2.47;;;7.20;99.90;;;;;;5069028;28;20764;-74
2023/01/11 09:48:36;;;;;;;4.23;1.70;;;7.20;99.90;;;;;;5071769;28;20625;-75
2023/01/11 09:51:03;;;;;;;7.07;3.57;;;7.20;99.90;;;;;;5071493;28;20174;-74
2023/01/11 09:53:37;;;;;;;6.13;2.20;;;7.20;99.90;;;;;;5053972;28;20222;-74
2023/01/11 09:56:06;;;;;;;3.90;1.70;;;7.10;99.90;;;;;;5050376;28;20214;-73
2023/01/11 09:58:35;;;;;;;6.67;2.50;;;7.10;99.90;;;;;;5068872;28;20579;-74
2023/01/11 10:01:11;;;;;;;7.17;2.80;;;7.20;99.90;;;;;;5071260;28;20286;-74
2023/01/11 10:03:48;;;;;;;6.77;2.43;;;7.20;99.90;;;;;;5071859;28;20245;-74
2023/01/11 10:06:41;;;;;;;3.77;1.93;;;7.20;99.90;;;;;;5071822;28;20205;-74
2023/01/11 10:09:19;;;;;;;5.03;2.20;;;7.20;99.90;;;;;;5070023;28;20178;-75
2023/01/11 10:12:20;;;;;;;6.00;2.23;;;7.20;99.90;;;;;;5070677;28;20199;-74
2023/01/11 10:15:31;;;;;;;5.67;2.23;;;7.20;99.90;;;;;;5070195;28;20194;-75
2023/01/11 10:18:06;;;;;;;5.97;2.07;;;7.30;99.90;;;;;;5042246;28;20207;-74
2023/01/11 10:20:39;;;;;;;2.47;1.90;;;7.40;99.90;;;;;;5067868;28;20676;-72
2023/01/11 10:23:13;;;;;;;7.03;2.20;;;7.30;99.90;;;;;;5067942;28;20230;-74
2023/01/11 10:25:50;;;;;;;4.13;2.07;;;7.40;99.90;;;;;;5067118;28;20687;-74
2023/01/11 10:28:34;;;;;;;5.30;2.13;;;7.50;99.90;;;;;;5070630;28;20243;-75
2023/01/11 10:31:21;;;;;;;13.43;2.93;;;7.40;99.90;;;;;;5052027;28;20210;-74
2023/01/11 10:34:12;;;;;;;5.67;2.60;;;7.50;99.90;;;;;;5070163;28;20202;-74
2023/01/11 10:37:03;;;;;;;7.27;2.20;;;7.50;99.90;;;;;;5070172;28;20203;-74
2023/01/11 10:39:58;;;;;;;5.67;2.20;;;7.60;99.90;;;;;;5066264;28;20235;-74
2023/01/11 10:42:27;;;;;;;7.27;2.40;;;7.70;99.90;;;;;;5048106;28;20175;-74
2023/01/11 10:45:02;;;;;;;11.47;6.20;;;7.60;99.90;;;;;;5052979;28;20190;-73
2023/01/11 10:47:38;;;;;;;5.73;2.10;;;7.70;99.90;;;;;;5067100;28;20213;-74
2023/01/11 10:50:20;;;;;;;4.40;2.07;;;7.70;99.90;;;;;;5069912;28;20202;-74
2023/01/11 10:53:13;;;;;;;6.60;2.10;;;7.80;99.90;;;;;;5068122;28;20244;-75
2023/01/11 10:55:43;;;;;;;8.90;1.90;;;7.70;99.90;;;;;;5050629;28;20218;-75
2023/01/11 10:58:33;;;;;;;3.07;1.93;;;7.70;99.90;;;;;;5051450;28;20211;-74
2023/01/11 11:01:19;;;;;;;3.80;2.20;;;7.80;99.90;;;;;;5067089;28;20579;-74
2023/01/11 11:04:15;;;;;;;8.07;2.33;;;7.70;99.90;;;;;;5067035;28;20552;-74
2023/01/11 11:07:10;;;;;;;4.90;2.00;;;7.70;99.90;;;;;;5067941;28;20219;-74
2023/01/11 11:09:38;;;;;;;4.10;2.10;;;7.70;99.90;;;;;;5057493;28;20215;-74
2023/01/11 11:12:13;;;;;;;6.13;2.23;;;7.70;99.90;;;;;;5069032;28;20190;-75
2023/01/11 11:15:03;;;;;;;3.83;2.00;;;7.70;99.90;;;;;;5070906;28;20383;-74
2023/01/11 11:17:33;;;;;;;3.00;2.03;;;7.80;99.90;;;;;;5047412;28;20276;-72
2023/01/11 11:19:59;;;;;;;5.87;1.83;;;7.80;99.90;;;;;;5066906;28;20665;-74
2023/01/11 11:22:25;;;;;;;4.90;2.03;;;7.90;99.90;;;;;;5070186;28;20207;-74
2023/01/11 11:25:06;;;;;;;4.90;2.40;;;7.90;99.90;;;;;;5070282;28;20218;-73
2023/01/11 11:27:45;;;;;;;4.60;2.50;;;7.90;99.90;;;;;;5050110;28;20202;-75
2023/01/11 11:30:13;;;;;;;4.20;2.17;;;8.00;99.90;;;;;;5069838;28;20223;-73
2023/01/11 11:32:45;;;;;;;3.43;2.27;;;8.00;99.90;;;;;;5070999;28;20178;-73
2023/01/11 11:35:32;;;;;;;2.47;1.87;;;7.90;99.90;;;;;;5069973;28;20681;-73
2023/01/11 11:37:57;;;;;;;2.07;1.60;;;7.90;99.90;;;;;;5067282;28;20275;-73
2023/01/11 11:40:29;;;;;;;8.60;4.60;;;7.90;99.90;;;;;;5068207;28;20681;-73
2023/01/11 11:43:09;;;;;;;4.20;2.60;;;7.90;99.90;;;;;;5070253;28;20556;-73
2023/01/11 11:45:35;;;;;;;5.80;3.20;;;8.00;99.90;;;;;;5066880;28;20261;-73
2023/01/11 11:48:04;;;;;;;2.07;1.73;;;8.00;99.90;;;;;;5038420;23;20702;-75
2023/01/11 11:50:30;;;;;;;8.93;5.57;;;8.00;99.90;;;;;;5014138;28;20311;-74
2023/01/11 11:53:02;;;;;;;3.73;1.97;;;8.00;99.90;;;;;;5023938;28;20207;-74
2023/01/11 11:55:31;;;;;;;2.33;1.90;;;8.00;99.90;;;;;;5026860;28;20314;-74
2023/01/11 11:58:14;;;;;;;4.03;2.00;;;8.00;99.90;;;;;;5024512;28;20303;-74
2023/01/11 12:00:48;;;;;;;2.43;1.83;;;8.10;99.90;;;;;;5016060;28;20204;-73
2023/01/11 12:03:20;;;;;;;2.57;2.30;;;8.10;99.90;;;;;;5023528;28;20642;-74
2023/01/11 12:06:00;;;;;;;2.90;2.57;;;8.10;99.90;;;;;;5028018;28;20658;-72
2023/01/11 12:08:28;;;;;;;3.43;2.17;;;8.10;99.90;;;;;;5005513;28;20209;-72
2023/01/11 12:11:00;;;;;;;2.77;1.90;;;8.10;99.90;;;;;;5028592;28;20208;-72
2023/01/11 12:13:41;;;;;;;4.33;2.17;;;8.20;99.90;;;;;;5015891;28;20278;-73
2023/01/11 12:16:20;;;;;;;3.37;2.10;;;8.20;99.90;;;;;;5006646;28;20246;-73
2023/01/11 12:18:46;;;;;;;4.47;2.20;;;8.10;99.90;;;;;;5027251;28;20200;-72
2023/01/11 12:21:31;;;;;;;2.50;1.83;;;8.20;99.90;;;;;;5028242;28;20219;-73
2023/01/11 12:24:17;;;;;;;7.27;2.30;;;8.20;99.90;;;;;;5029320;28;20179;-72
2023/01/11 12:26:50;;;;;;;4.87;2.03;;;8.30;99.90;;;;;;5022841;28;20212;-73
2023/01/11 12:29:21;;;;;;;4.63;1.90;;;8.40;99.90;;;;;;5027758;28;20741;-73
2023/01/11 12:32:29;;;;;;;3.97;2.13;;;8.40;99.90;;;;;;5028803;28;20207;-74
2023/01/11 12:35:28;;;;;;;2.10;1.70;;;8.40;99.90;;;;;;4975275;28;20197;-72
2023/01/11 12:38:09;;;;;;;3.60;2.33;;;8.40;99.90;;;;;;5027839;28;20204;-73
2023/01/11 12:41:09;;;;;;;11.40;5.70;;;8.50;99.90;;;;;;5025606;28;20226;-73
2023/01/11 12:44:05;;;;;;;5.80;3.00;;;8.50;99.90;;;;;;5026759;28;20204;-73
2023/01/11 12:47:03;;;;;;;2.90;1.80;;;8.50;99.90;;;;;;5021510;28;20238;-74
2023/01/11 12:49:37;;;;;;;5.77;1.73;;;8.50;99.90;;;;;;5012318;28;20208;-74
2023/01/11 12:52:20;;;;;;;8.10;2.23;;;8.40;99.90;;;;;;5030595;28;20215;-73
2023/01/11 12:55:14;;;;;;;2.40;1.90;;;8.40;99.90;;;;;;5048068;28;20200;-74
2023/01/11 12:58:01;;;;;;;1.70;1.50;;;8.40;99.90;;;;;;5056357;28;20215;-73
2023/01/11 13:00:54;;;;;;;2.53;2.00;;;8.30;99.90;;;;;;5049313;28;20176;-74
2023/01/11 13:03:25;;;;;;;4.77;2.10;;;8.30;99.90;;;;;;5040010;28;20377;-74
2023/01/11 13:06:00;;;;;;;2.17;1.90;;;8.30;99.90;;;;;;5028330;28;20254;-74
2023/01/11 13:08:53;;;;;;;2.23;1.77;;;8.40;99.90;;;;;;5014424;28;20613;-74
2023/01/11 13:11:37;;;;;;;5.50;2.90;;;8.30;99.90;;;;;;5026977;28;20246;-74
2023/01/11 13:14:32;;;;;;;3.03;2.33;;;8.40;99.90;;;;;;5004853;28;20201;-74
2023/01/11 13:17:31;;;;;;;6.63;2.50;;;8.40;99.90;;;;;;4973524;28;20209;-73
2023/01/11 13:20:12;;;;;;;4.53;1.73;;;8.40;99.90;;;;;;5025786;28;20224;-74
2023/01/11 13:22:42;;;;;;;2.30;1.97;;;8.30;99.90;;;;;;5009694;28;20683;-73
2023/01/11 13:25:23;;;;;;;4.10;2.03;;;8.40;99.90;;;;;;5029198;28;20200;-73
2023/01/11 13:27:51;;;;;;;2.40;1.70;;;8.40;99.90;;;;;;5024144;28;20205;-74
2023/01/11 13:30:19;;;;;;;4.17;2.00;;;8.40;99.90;;;;;;5026957;28;20523;-74
2023/01/11 13:33:11;;;;;;;3.27;1.90;;;8.40;99.90;;;;;;5028441;28;20692;-74
2023/01/11 13:35:48;;;;;;;4.50;1.70;;;8.40;99.90;;;;;;5023412;28;20667;-74
2023/01/11 13:38:32;;;;;;;3.87;1.63;;;8.40;99.90;;;;;;5029433;28;20616;-74
2023/01/11 13:41:15;;;;;;;3.40;1.80;;;8.40;99.90;;;;;;5002646;28;20266;-74
2023/01/11 13:44:19;;;;;;;4.00;1.63;;;8.40;99.90;;;;;;5028146;28;20694;-74
2023/01/11 13:47:18;;;;;;;3.67;1.70;;;8.40;99.90;;;;;;4951162;28;20673;-73
2023/01/11 13:50:11;;;;;;;2.00;1.80;;;8.40;99.90;;;;;;4991395;28;20208;-74
2023/01/11 13:52:59;;;;;;;1.97;1.43;;;8.50;99.90;;;;;;5028811;28;20215;-73